Time;durP1;ratioP1;P1;durP2;ratioP2;P2;SDS_P1;SDS_P2;PMS_P1;PMS_P2;Temp;Humidity;BMP_temperature;BMP_pressure;BME280_temperature;BME280_humidity;BME280_pressure;Samples;Min_cycle;Max_cycle;Signal;HPM_P1;HPM_P2
2022/06/15 00:01:12;;;;;;;0.73;0.60;;;24.30;54.50;;;;;;6275087;28;20071;-49
2022/06/15 00:04:14;;;;;;;0.73;0.50;;;24.40;54.60;;;;;;6263660;28;20039;-52
2022/06/15 00:07:16;;;;;;;0.57;0.40;;;24.40;54.50;;;;;;6280190;28;20056;-53
2022/06/15 00:10:18;;;;;;;0.52;0.40;;;24.50;54.60;;;;;;6278483;28;20089;-53
2022/06/15 00:13:21;;;;;;;0.70;0.70;;;24.50;54.60;;;;;;6281087;28;20039;-48
2022/06/15 00:16:23;;;;;;;0.63;0.40;;;24.30;54.40;;;;;;6277952;28;20135;-51
2022/06/15 00:19:24;;;;;;;0.70;0.40;;;24.50;54.50;;;;;;6281078;28;20036;-50
2022/06/15 00:22:26;;;;;;;0.68;0.50;;;24.40;54.40;;;;;;6279168;28;20146;-48
2022/06/15 00:25:28;;;;;;;0.77;0.60;;;24.30;54.40;;;;;;6279063;28;20039;-51
2022/06/15 00:28:29;;;;;;;0.52;0.50;;;24.30;54.30;;;;;;6286693;28;20032;-47
2022/06/15 00:31:31;;;;;;;0.50;0.40;;;24.50;54.50;;;;;;6285996;28;21185;-48
2022/06/15 00:34:33;;;;;;;0.88;0.68;;;24.40;54.20;;;;;;6288533;28;20078;-49
2022/06/15 00:37:36;;;;;;;0.80;0.60;;;24.40;54.10;;;;;;6287182;27;20131;-52
2022/06/15 00:40:38;;;;;;;0.55;0.50;;;24.40;54.00;;;;;;6283163;27;20098;-51
2022/06/15 00:43:44;;;;;;;0.50;0.45;;;24.30;53.90;;;;;;6282282;28;20145;-52
2022/06/15 00:46:48;;;;;;;0.60;0.50;;;24.30;53.80;;;;;;6274032;27;20055;-51
2022/06/15 00:49:54;;;;;;;0.73;0.50;;;24.30;53.70;;;;;;6283109;28;20043;-50
2022/06/15 00:53:02;;;;;;;0.57;0.50;;;24.30;53.60;;;;;;6285265;28;20078;-49
2022/06/15 00:56:06;;;;;;;1.10;0.47;;;24.30;53.50;;;;;;6281249;27;20091;-51
2022/06/15 00:59:14;;;;;;;0.73;0.57;;;24.20;53.30;;;;;;6282329;28;20150;-49
2022/06/15 01:02:16;;;;;;;0.63;0.50;;;24.30;53.30;;;;;;6285665;28;20954;-50
2022/06/15 01:05:20;;;;;;;0.70;0.57;;;24.20;53.20;;;;;;6287837;28;20047;-50
2022/06/15 01:08:29;;;;;;;0.47;0.38;;;24.20;53.20;;;;;;6272339;28;20081;-52
2022/06/15 01:11:48;;;;;;;0.88;0.50;;;24.20;53.00;;;;;;6291186;27;20078;-49
2022/06/15 01:15:06;;;;;;;1.67;0.68;;;24.20;52.90;;;;;;6286569;27;20097;-49
2022/06/15 01:18:20;;;;;;;0.40;0.40;;;24.20;52.80;;;;;;6285918;28;20078;-50
2022/06/15 01:21:28;;;;;;;0.52;0.47;;;24.20;52.70;;;;;;6287089;28;20141;-52
2022/06/15 01:24:52;;;;;;;0.75;0.40;;;24.20;52.70;;;;;;6286074;28;20154;-48
2022/06/15 01:28:21;;;;;;;0.52;0.45;;;24.20;52.70;;;;;;6274048;28;20561;-49
2022/06/15 01:31:30;;;;;;;0.90;0.68;;;24.20;52.60;;;;;;6269797;27;20641;-50
2022/06/15 01:34:40;;;;;;;0.63;0.50;;;24.20;52.50;;;;;;6267658;28;20051;-47
2022/06/15 01:37:48;;;;;;;0.68;0.45;;;24.00;52.40;;;;;;6254172;28;20398;-48
2022/06/15 01:40:57;;;;;;;0.45;0.40;;;24.20;52.40;;;;;;6264998;28;20144;-51
2022/06/15 01:44:07;;;;;;;0.43;0.40;;;24.20;52.30;;;;;;6266276;28;20343;-51
2022/06/15 01:47:17;;;;;;;0.88;0.60;;;24.10;52.10;;;;;;6268319;28;20108;-49
2022/06/15 01:50:23;;;;;;;0.60;0.43;;;24.20;52.10;;;;;;6263170;28;20086;-48
2022/06/15 01:53:33;;;;;;;0.70;0.60;;;24.00;51.90;;;;;;6266010;28;20341;-49
2022/06/15 01:56:41;;;;;;;0.50;0.47;;;24.00;51.90;;;;;;6264217;28;20575;-50
2022/06/15 01:59:46;;;;;;;0.70;0.60;;;24.00;51.80;;;;;;6262975;28;20134;-47
2022/06/15 02:02:58;;;;;;;0.55;0.50;;;24.10;51.90;;;;;;6263744;28;20500;-50
2022/06/15 02:06:07;;;;;;;0.40;0.40;;;24.10;51.80;;;;;;6264038;28;20575;-48
2022/06/15 02:09:16;;;;;;;0.60;0.50;;;24.10;51.80;;;;;;6266664;28;20245;-52
2022/06/15 02:12:27;;;;;;;0.60;0.50;;;24.10;51.80;;;;;;6259969;28;20283;-48
2022/06/15 02:15:30;;;;;;;0.88;0.50;;;24.10;51.70;;;;;;6267130;28;20043;-47
2022/06/15 02:18:42;;;;;;;0.80;0.45;;;23.90;51.60;;;;;;6266699;28;20513;-48
2022/06/15 02:21:46;;;;;;;0.50;0.50;;;24.00;51.70;;;;;;6266336;28;20485;-52
2022/06/15 02:24:52;;;;;;;0.60;0.50;;;24.00;51.60;;;;;;6261803;28;20871;-48
2022/06/15 02:27:55;;;;;;;0.40;0.40;;;24.00;51.50;;;;;;6267954;28;20479;-49
2022/06/15 02:30:58;;;;;;;0.95;0.50;;;23.90;51.50;;;;;;6264954;28;20051;-51
2022/06/15 02:34:03;;;;;;;0.75;0.50;;;24.00;51.50;;;;;;6263916;28;20136;-51
2022/06/15 02:37:05;;;;;;;0.68;0.50;;;24.00;51.40;;;;;;6263397;28;20499;-51
2022/06/15 02:40:09;;;;;;;0.55;0.40;;;24.00;51.40;;;;;;6264353;28;20131;-50
2022/06/15 02:43:14;;;;;;;0.45;0.43;;;24.00;51.40;;;;;;6263844;28;20159;-50
2022/06/15 02:46:20;;;;;;;0.47;0.47;;;24.00;51.30;;;;;;6262347;28;20967;-48
2022/06/15 02:49:25;;;;;;;0.60;0.32;;;24.00;51.30;;;;;;6265570;28;20292;-47
2022/06/15 02:52:33;;;;;;;0.70;0.50;;;23.90;51.30;;;;;;6265612;28;20151;-51
2022/06/15 02:55:38;;;;;;;0.55;0.40;;;23.90;51.30;;;;;;6263295;28;20457;-47
2022/06/15 02:58:43;;;;;;;0.60;0.55;;;24.00;51.30;;;;;;6269331;28;20456;-50
2022/06/15 03:01:46;;;;;;;0.60;0.50;;;23.80;51.20;;;;;;6263319;28;20194;-49
2022/06/15 03:04:50;;;;;;;0.60;0.50;;;23.90;51.20;;;;;;6268445;28;20032;-48
2022/06/15 03:07:52;;;;;;;0.50;0.40;;;23.80;51.20;;;;;;6261474;28;20328;-50
2022/06/15 03:10:54;;;;;;;0.70;0.50;;;23.90;51.30;;;;;;6265400;28;20264;-52
2022/06/15 03:13:59;;;;;;;1.33;0.50;;;23.70;51.20;;;;;;6263316;28;20047;-48
2022/06/15 03:17:01;;;;;;;0.70;0.50;;;23.80;51.30;;;;;;6278509;28;20056;-50
2022/06/15 03:20:16;;;;;;;0.80;0.50;;;23.80;51.30;;;;;;6280778;28;20031;-52
2022/06/15 03:23:21;;;;;;;0.40;0.40;;;23.80;51.20;;;;;;6261733;28;20465;-51
2022/06/15 03:26:24;;;;;;;0.82;0.52;;;23.80;51.20;;;;;;6262530;28;20295;-48
2022/06/15 03:29:26;;;;;;;0.50;0.40;;;23.80;51.20;;;;;;6257963;28;20303;-48
2022/06/15 03:32:33;;;;;;;0.68;0.50;;;23.80;51.30;;;;;;6265315;28;20214;-51
2022/06/15 03:35:39;;;;;;;0.88;0.60;;;23.80;51.30;;;;;;6266932;28;20167;-48
2022/06/15 03:38:50;;;;;;;0.68;0.68;;;23.80;51.30;;;;;;6263271;28;20742;-48
2022/06/15 03:42:08;;;;;;;0.50;0.50;;;23.80;51.40;;;;;;6264012;28;21304;-50
2022/06/15 03:45:13;;;;;;;0.80;0.70;;;23.90;51.50;;;;;;6262975;28;20074;-47
2022/06/15 03:48:15;;;;;;;1.15;0.40;;;23.80;51.40;;;;;;6263750;28;20109;-49
2022/06/15 03:51:20;;;;;;;0.60;0.60;;;23.70;51.40;;;;;;6263773;28;20150;-48
2022/06/15 03:54:28;;;;;;;0.45;0.45;;;23.80;51.50;;;;;;6263229;28;20447;-50
2022/06/15 03:57:30;;;;;;;0.73;0.70;;;24.00;51.60;;;;;;6264778;28;20398;-47
2022/06/15 04:00:34;;;;;;;0.40;0.40;;;24.00;51.70;;;;;;6267770;28;20039;-51
2022/06/15 04:03:45;;;;;;;0.57;0.47;;;23.80;51.60;;;;;;6263272;28;20809;-46
2022/06/15 04:06:51;;;;;;;0.85;0.52;;;23.80;51.60;;;;;;6262309;28;20486;-50
2022/06/15 04:09:58;;;;;;;0.63;0.50;;;23.80;51.60;;;;;;6263969;28;20120;-48
2022/06/15 04:13:00;;;;;;;0.73;0.60;;;23.90;51.70;;;;;;6262459;28;20143;-49
2022/06/15 04:16:04;;;;;;;0.45;0.40;;;23.70;51.60;;;;;;6263580;28;20734;-51
2022/06/15 04:19:08;;;;;;;0.50;0.45;;;23.80;51.70;;;;;;6258585;28;20458;-49
2022/06/15 04:22:18;;;;;;;0.55;0.55;;;23.80;51.70;;;;;;6258526;28;20743;-51
2022/06/15 04:25:21;;;;;;;0.68;0.50;;;23.80;51.70;;;;;;6259816;28;20156;-47
2022/06/15 04:28:25;;;;;;;0.70;0.50;;;23.70;51.60;;;;;;6260706;28;20044;-48
2022/06/15 04:31:29;;;;;;;0.40;0.40;;;23.70;51.50;;;;;;6254691;28;20160;-48
2022/06/15 04:34:31;;;;;;;0.50;0.50;;;23.70;51.50;;;;;;6258597;28;20039;-48
2022/06/15 04:37:37;;;;;;;0.43;0.40;;;23.70;51.50;;;;;;6257472;27;20158;-47
2022/06/15 04:40:48;;;;;;;1.00;0.60;;;23.70;51.50;;;;;;6256730;28;20341;-47
2022/06/15 04:43:51;;;;;;;0.45;0.45;;;23.70;51.50;;;;;;6259056;28;20563;-48
2022/06/15 04:46:53;;;;;;;0.40;0.32;;;23.70;51.60;;;;;;6258343;28;20816;-52
2022/06/15 04:49:57;;;;;;;0.50;0.47;;;23.80;51.60;;;;;;6256546;28;20629;-49
2022/06/15 04:53:01;;;;;;;0.55;0.40;;;23.80;51.60;;;;;;6259037;28;20591;-52
2022/06/15 04:56:03;;;;;;;0.55;0.40;;;23.70;51.50;;;;;;6256002;28;20044;-50
2022/06/15 04:59:05;;;;;;;0.50;0.50;;;23.70;51.50;;;;;;6255649;28;20381;-49
2022/06/15 05:02:08;;;;;;;0.50;0.40;;;23.60;51.50;;;;;;6256518;28;20252;-50
2022/06/15 05:05:15;;;;;;;0.50;0.40;;;23.60;51.50;;;;;;6257688;28;20514;-48
2022/06/15 05:08:17;;;;;;;0.70;0.45;;;23.70;51.60;;;;;;6255825;28;20363;-51
2022/06/15 05:11:21;;;;;;;0.38;0.35;;;23.70;51.60;;;;;;6250859;28;20036;-48
2022/06/15 05:14:25;;;;;;;0.77;0.50;;;23.80;51.60;;;;;;6271952;28;20039;-51
2022/06/15 05:17:28;;;;;;;0.50;0.50;;;23.70;51.60;;;;;;6269092;28;20214;-47
2022/06/15 05:20:30;;;;;;;0.55;0.50;;;23.80;51.70;;;;;;6258887;28;20047;-49
2022/06/15 05:23:33;;;;;;;0.60;0.50;;;23.60;51.60;;;;;;6265909;28;20048;-50
2022/06/15 05:26:42;;;;;;;0.60;0.40;;;23.70;51.70;;;;;;6259197;28;20214;-50
2022/06/15 05:29:44;;;;;;;0.70;0.50;;;23.70;51.70;;;;;;6260555;28;20407;-48
2022/06/15 05:32:51;;;;;;;0.60;0.50;;;23.80;51.80;;;;;;6256420;28;21721;-48
2022/06/15 05:35:53;;;;;;;0.60;0.40;;;23.70;51.70;;;;;;6274742;28;20047;-50
2022/06/15 05:39:01;;;;;;;0.50;0.50;;;23.60;51.60;;;;;;6263891;28;20295;-51
2022/06/15 05:42:04;;;;;;;1.00;0.60;;;23.70;51.70;;;;;;6256813;28;20043;-49
2022/06/15 05:45:07;;;;;;;0.70;0.50;;;23.60;51.60;;;;;;6252007;28;20051;-48
2022/06/15 05:48:09;;;;;;;0.70;0.70;;;23.60;51.60;;;;;;6250318;28;20080;-49
2022/06/15 05:51:13;;;;;;;0.85;0.60;;;23.70;51.60;;;;;;6253222;28;20856;-52
2022/06/15 05:54:15;;;;;;;0.82;0.60;;;23.70;51.60;;;;;;6259122;28;20186;-52
2022/06/15 05:57:19;;;;;;;2.67;0.63;;;23.60;51.50;;;;;;6260308;28;20158;-50
2022/06/15 06:00:23;;;;;;;1.13;1.00;;;23.70;51.60;;;;;;6256301;28;21101;-50
2022/06/15 06:03:24;;;;;;;1.70;0.75;;;23.70;51.60;;;;;;6256506;28;20040;-48
2022/06/15 06:06:28;;;;;;;2.80;0.90;;;23.70;51.60;;;;;;6253601;28;20051;-48
2022/06/15 06:09:31;;;;;;;2.60;1.00;;;23.70;51.60;;;;;;6234117;28;21013;-52
2022/06/15 06:12:32;;;;;;;1.65;1.02;;;23.70;51.60;;;;;;6256860;28;20062;-53
2022/06/15 06:15:34;;;;;;;1.00;0.70;;;23.60;51.60;;;;;;6253573;28;21892;-50
2022/06/15 06:18:36;;;;;;;2.28;1.00;;;23.70;51.70;;;;;;6246476;28;20036;-53
2022/06/15 06:21:38;;;;;;;2.13;1.05;;;23.70;51.70;;;;;;6246769;28;20159;-48
2022/06/15 06:24:40;;;;;;;1.90;0.80;;;23.70;51.80;;;;;;6249118;28;20047;-51
2022/06/15 06:27:42;;;;;;;1.15;0.70;;;23.60;51.80;;;;;;6243471;28;21933;-48
2022/06/15 06:30:43;;;;;;;1.30;0.80;;;23.70;51.80;;;;;;6246279;28;20920;-50
2022/06/15 06:33:45;;;;;;;1.60;0.90;;;23.70;51.90;;;;;;6237168;28;20252;-50
2022/06/15 06:36:48;;;;;;;2.53;1.00;;;23.60;51.90;;;;;;6218816;28;20050;-50
2022/06/15 06:39:54;;;;;;;3.60;1.17;;;23.70;52.00;;;;;;6224594;28;20059;-48
2022/06/15 06:42:57;;;;;;;3.10;1.13;;;23.90;52.20;;;;;;6193884;28;20124;-52
2022/06/15 06:45:59;;;;;;;2.95;1.00;;;23.80;52.20;;;;;;6210498;28;20170;-47
2022/06/15 06:49:02;;;;;;;2.38;0.98;;;23.80;52.30;;;;;;6195815;28;20150;-50
2022/06/15 06:52:05;;;;;;;2.97;1.13;;;23.50;52.30;;;;;;6155881;28;20048;-54
2022/06/15 06:55:08;;;;;;;1.90;0.70;;;23.70;52.40;;;;;;6162115;28;20046;-51
2022/06/15 06:58:10;;;;;;;1.65;1.10;;;23.80;52.50;;;;;;6147272;28;22204;-47
2022/06/15 07:01:11;;;;;;;1.65;0.80;;;23.70;52.50;;;;;;6135029;27;20191;-47
2022/06/15 07:04:14;;;;;;;1.75;0.73;;;23.70;52.60;;;;;;6110994;28;22247;-53
2022/06/15 07:07:16;;;;;;;1.65;0.80;;;23.90;52.70;;;;;;6123761;28;23126;-53
2022/06/15 07:10:19;;;;;;;1.85;0.73;;;23.80;52.60;;;;;;6115739;28;20059;-47
2022/06/15 07:13:20;;;;;;;1.00;0.70;;;23.90;52.70;;;;;;6116455;28;20128;-50
2022/06/15 07:16:22;;;;;;;3.35;0.75;;;23.80;52.60;;;;;;6094827;28;21209;-52
2022/06/15 07:19:24;;;;;;;1.65;0.88;;;23.90;52.70;;;;;;6103771;28;20035;-53
2022/06/15 07:22:26;;;;;;;3.90;0.63;;;23.90;52.70;;;;;;6129363;28;20139;-52
2022/06/15 07:25:31;;;;;;;1.05;0.60;;;23.90;52.80;;;;;;6119401;28;20136;-54
2022/06/15 07:28:34;;;;;;;1.30;0.65;;;23.90;52.80;;;;;;6088325;28;20162;-49
2022/06/15 07:31:38;;;;;;;3.15;1.10;;;23.80;52.80;;;;;;6055319;28;20043;-48
2022/06/15 07:34:40;;;;;;;2.97;1.02;;;24.00;52.90;;;;;;6104002;28;20050;-51
2022/06/15 07:37:42;;;;;;;5.00;1.48;;;24.00;53.00;;;;;;6128616;28;20154;-51
2022/06/15 07:41:04;;;;;;;1.77;1.02;;;24.00;52.90;;;;;;6136145;28;20054;-52
2022/06/15 07:44:06;;;;;;;1.48;1.00;;;24.00;52.80;;;;;;6133879;28;20056;-50
2022/06/15 07:50:21;;;;;;;2.95;1.50;;;24.20;52.70;;;;;;6099412;28;20047;-55
2022/06/15 07:53:37;;;;;;;2.40;1.48;;;24.20;52.30;;;;;;6099621;28;20178;-52
2022/06/15 07:56:41;;;;;;;2.13;1.20;;;24.20;52.10;;;;;;6104520;28;21216;-54
2022/06/15 07:59:43;;;;;;;4.03;1.35;;;24.00;51.90;;;;;;6089527;28;20094;-51
2022/06/15 08:02:45;;;;;;;2.17;1.02;;;24.20;51.90;;;;;;6065102;28;20048;-50
2022/06/15 08:05:49;;;;;;;4.32;1.80;;;24.20;51.90;;;;;;6080735;28;20047;-52
2022/06/15 08:08:51;;;;;;;5.00;2.00;;;24.20;51.80;;;;;;6080162;28;20048;-52
2022/06/15 08:15:11;;;;;;;4.72;1.70;;;24.30;51.90;;;;;;6108997;27;20166;-53
2022/06/15 08:18:16;;;;;;;5.03;1.55;;;24.30;51.90;;;;;;6084305;28;22652;-54
2022/06/15 08:21:21;;;;;;;3.30;1.30;;;24.30;52.00;;;;;;6100476;28;20079;-52
2022/06/15 08:24:24;;;;;;;2.90;1.40;;;24.40;51.90;;;;;;6103458;28;21407;-51
2022/06/15 08:27:26;;;;;;;2.33;1.70;;;24.30;51.90;;;;;;6100774;28;20040;-53
2022/06/15 08:30:28;;;;;;;2.10;1.30;;;24.40;52.00;;;;;;6097283;28;20080;-50
2022/06/15 08:33:30;;;;;;;2.03;1.40;;;24.80;52.20;;;;;;6104785;28;22420;-53
2022/06/15 08:36:32;;;;;;;3.00;1.55;;;24.40;52.10;;;;;;6091473;28;20150;-50
2022/06/15 08:39:33;;;;;;;1.38;0.98;;;24.50;52.20;;;;;;6108083;28;20170;-52
2022/06/15 08:42:45;;;;;;;2.10;0.90;;;24.30;52.20;;;;;;6095234;28;20077;-50
2022/06/15 08:45:51;;;;;;;1.83;0.80;;;24.40;52.30;;;;;;6070876;28;20054;-51
2022/06/15 08:49:05;;;;;;;1.85;0.88;;;24.40;52.30;;;;;;6077520;28;20044;-54
2022/06/15 08:52:14;;;;;;;1.52;0.80;;;24.40;52.40;;;;;;6079323;28;20105;-53
2022/06/15 08:55:22;;;;;;;1.05;0.80;;;24.20;52.30;;;;;;6100803;28;20076;-54
2022/06/15 08:58:38;;;;;;;2.55;0.90;;;24.50;52.60;;;;;;6091450;28;20148;-53
2022/06/15 09:01:44;;;;;;;1.40;0.90;;;24.20;52.40;;;;;;6061657;28;20059;-54
2022/06/15 09:04:53;;;;;;;1.33;0.70;;;24.50;52.60;;;;;;6058621;28;20052;-51
2022/06/15 09:08:13;;;;;;;1.42;0.88;;;24.50;52.70;;;;;;6098161;28;20146;-53
2022/06/15 09:11:26;;;;;;;1.65;0.98;;;24.50;52.70;;;;;;6110768;28;20234;-54
2022/06/15 09:14:37;;;;;;;1.00;0.90;;;24.40;52.70;;;;;;6103226;28;20043;-52
2022/06/15 09:17:40;;;;;;;1.42;0.82;;;24.50;52.80;;;;;;6073760;28;22198;-50
2022/06/15 09:20:53;;;;;;;1.52;0.80;;;24.50;52.90;;;;;;6103854;28;21678;-54
2022/06/15 09:23:58;;;;;;;1.30;0.80;;;24.40;53.50;;;;;;6077119;28;20150;-54
2022/06/15 09:27:03;;;;;;;1.30;0.90;;;24.50;53.00;;;;;;6082697;28;20177;-54
2022/06/15 09:30:11;;;;;;;4.07;1.20;;;24.50;53.00;;;;;;6084312;28;20125;-50
2022/06/15 09:33:17;;;;;;;2.00;0.77;;;24.50;53.10;;;;;;6083023;28;21392;-55
2022/06/15 09:36:23;;;;;;;1.23;0.68;;;24.30;53.00;;;;;;6087122;28;20152;-51
2022/06/15 09:39:26;;;;;;;2.60;0.90;;;24.40;53.00;;;;;;6110450;28;20040;-52
2022/06/15 09:42:35;;;;;;;2.45;1.17;;;24.40;53.00;;;;;;6097279;28;20244;-55
2022/06/15 09:45:45;;;;;;;1.08;0.80;;;24.40;53.00;;;;;;6110651;28;20095;-54
2022/06/15 09:49:02;;;;;;;1.60;0.68;;;24.40;53.00;;;;;;6091581;28;20055;-51
2022/06/15 09:52:11;;;;;;;1.33;0.90;;;24.50;53.00;;;;;;6114873;27;21206;-48
2022/06/15 09:55:24;;;;;;;1.00;0.70;;;24.40;52.90;;;;;;6117650;28;20051;-50
2022/06/15 09:58:29;;;;;;;2.08;1.17;;;24.40;52.80;;;;;;6132521;28;20055;-52
2022/06/15 10:01:35;;;;;;;2.75;1.08;;;24.30;53.40;;;;;;6122861;28;20071;-50
2022/06/15 10:04:37;;;;;;;2.50;0.95;;;24.40;52.70;;;;;;6103874;28;20043;-50
2022/06/15 10:07:48;;;;;;;1.75;0.85;;;24.50;52.70;;;;;;6111670;28;20437;-51
2022/06/15 10:10:53;;;;;;;3.25;1.10;;;24.30;52.50;;;;;;6113972;28;20159;-53
2022/06/15 10:14:18;;;;;;;1.75;1.20;;;24.40;52.40;;;;;;6104599;28;22066;-51
2022/06/15 10:17:28;;;;;;;1.25;1.00;;;24.40;52.20;;;;;;6118460;28;20179;-54
2022/06/15 10:20:33;;;;;;;2.47;1.10;;;24.50;52.10;;;;;;6133999;28;20549;-51
2022/06/15 10:23:42;;;;;;;1.23;0.80;;;24.50;51.90;;;;;;6140022;28;20054;-53
2022/06/15 10:26:46;;;;;;;1.83;0.85;;;24.50;51.70;;;;;;6156416;28;20178;-49
2022/06/15 10:29:59;;;;;;;2.47;0.93;;;24.50;51.60;;;;;;6122687;28;20902;-51
2022/06/15 10:33:03;;;;;;;2.13;0.98;;;24.40;51.40;;;;;;6140978;28;20354;-49
2022/06/15 10:36:16;;;;;;;1.27;0.88;;;24.50;51.40;;;;;;6137140;28;20126;-48
2022/06/15 10:39:23;;;;;;;1.92;0.88;;;24.60;51.20;;;;;;6166195;28;20484;-52
2022/06/15 10:42:36;;;;;;;1.30;0.80;;;24.60;50.90;;;;;;6165175;28;20204;-48
2022/06/15 10:45:42;;;;;;;1.33;0.85;;;24.50;50.70;;;;;;6173562;28;20934;-47
2022/06/15 10:48:47;;;;;;;0.95;0.77;;;24.40;50.40;;;;;;6177030;28;20708;-48
2022/06/15 10:51:50;;;;;;;1.80;0.80;;;24.50;50.30;;;;;;6162537;28;20332;-51
2022/06/15 11:05:15;;;;;;;1.73;1.00;;;24.40;49.20;;;;;;6174930;28;21061;-51
2022/06/15 11:08:20;;;;;;;2.80;0.90;;;24.50;49.10;;;;;;6137718;28;22176;-48
2022/06/15 11:14:56;;;;;;;0.93;0.68;;;24.50;49.00;;;;;;6196710;28;20048;-53
2022/06/15 11:18:03;;;;;;;0.90;0.73;;;24.50;48.90;;;;;;6181000;28;20109;-52
2022/06/15 11:21:14;;;;;;;0.93;0.52;;;24.60;48.90;;;;;;6189812;28;20046;-51
2022/06/15 11:24:32;;;;;;;0.68;0.50;;;24.60;48.70;;;;;;6194558;28;20056;-51
2022/06/15 11:27:41;;;;;;;1.63;0.50;;;24.60;48.70;;;;;;6181083;28;20071;-50
2022/06/15 11:30:52;;;;;;;0.93;0.55;;;24.60;49.20;;;;;;6179489;28;20047;-48
2022/06/15 11:34:01;;;;;;;1.42;0.70;;;24.60;48.70;;;;;;6186339;28;22192;-53
2022/06/15 11:37:10;;;;;;;0.93;0.40;;;24.60;48.70;;;;;;6193898;28;21322;-47
2022/06/15 11:40:18;;;;;;;1.05;0.43;;;24.60;48.60;;;;;;6176598;28;20071;-51
2022/06/15 11:43:23;;;;;;;2.03;0.50;;;24.60;48.60;;;;;;6167187;28;20051;-50
2022/06/15 11:46:39;;;;;;;0.95;0.40;;;24.60;48.70;;;;;;6168788;28;20170;-51
2022/06/15 11:49:47;;;;;;;3.15;0.50;;;24.50;48.70;;;;;;6162094;28;20052;-50
2022/06/15 11:52:58;;;;;;;0.80;0.50;;;24.60;48.90;;;;;;6145898;28;20044;-50
2022/06/15 11:56:08;;;;;;;0.52;0.40;;;24.60;48.80;;;;;;6125699;28;22602;-50
2022/06/15 11:59:18;;;;;;;1.00;0.53;;;24.60;48.90;;;;;;6107788;28;20108;-49
2022/06/15 12:02:48;;;;;;;0.70;0.50;;;24.70;49.00;;;;;;6107272;28;20083;-50
2022/06/15 12:05:56;;;;;;;3.08;0.88;;;24.70;49.20;;;;;;6119469;28;20140;-52
2022/06/15 12:09:09;;;;;;;0.55;0.50;;;24.70;49.20;;;;;;6141069;28;20044;-49
2022/06/15 12:15:38;;;;;;;0.50;0.35;;;24.70;49.20;;;;;;6104896;28;20294;-51
2022/06/15 12:18:52;;;;;;;1.08;0.60;;;24.70;49.20;;;;;;6117555;28;20153;-53
2022/06/15 12:21:58;;;;;;;2.10;0.45;;;24.70;49.30;;;;;;6104066;28;20078;-50
2022/06/15 12:25:10;;;;;;;1.67;0.50;;;25.00;49.30;;;;;;6123010;28;20043;-54
2022/06/15 12:28:19;;;;;;;0.60;0.52;;;24.80;49.30;;;;;;6130066;28;20047;-48
2022/06/15 12:31:30;;;;;;;0.70;0.60;;;24.80;49.20;;;;;;6092090;27;20044;-53
2022/06/15 12:34:43;;;;;;;1.55;0.57;;;24.90;49.20;;;;;;6109574;28;20170;-49
2022/06/15 12:37:53;;;;;;;0.85;0.50;;;24.90;49.30;;;;;;6110621;28;20055;-50
2022/06/15 12:42:09;;;;;;;0.77;0.50;;;24.90;49.20;;;;;;6108587;28;21852;-49
2022/06/15 12:44:38;;;;;;;0.50;0.45;;;24.90;49.00;;;;;;6114204;28;20574;-52
2022/06/15 12:47:41;;;;;;;0.45;0.40;;;24.80;48.80;;;;;;6118330;28;20040;-53
2022/06/15 12:50:51;;;;;;;0.55;0.50;;;25.00;48.90;;;;;;6094899;28;20055;-47
2022/06/15 12:54:02;;;;;;;0.70;0.57;;;24.90;48.40;;;;;;6114024;28;24522;-50
2022/06/15 13:00:45;;;;;;;0.57;0.52;;;25.10;48.20;;;;;;6115288;28;20185;-51
2022/06/15 13:03:58;;;;;;;2.20;0.50;;;25.00;48.00;;;;;;6108708;28;20040;-51
2022/06/15 13:07:18;;;;;;;0.40;0.40;;;25.00;47.80;;;;;;6112852;28;21477;-51
2022/06/15 13:10:25;;;;;;;2.60;0.50;;;25.10;47.70;;;;;;6113861;28;20052;-53
2022/06/15 13:13:31;;;;;;;0.68;0.60;;;25.10;47.70;;;;;;6108299;28;20071;-49
2022/06/15 13:16:35;;;;;;;0.50;0.40;;;25.10;47.50;;;;;;6128776;28;20058;-56
2022/06/15 13:19:40;;;;;;;0.75;0.50;;;25.20;47.50;;;;;;6103467;28;21460;-51
2022/06/15 13:22:42;;;;;;;0.50;0.40;;;25.10;47.30;;;;;;6097945;28;22387;-54
2022/06/15 13:25:50;;;;;;;0.85;0.50;;;25.10;47.20;;;;;;6125508;28;20040;-51
2022/06/15 13:29:19;;;;;;;0.45;0.30;;;25.00;47.10;;;;;;6110411;28;20174;-51
2022/06/15 13:36:22;;;;;;;0.68;0.50;;;25.10;47.10;;;;;;6094047;28;20047;-50
2022/06/15 13:39:46;;;;;;;0.50;0.50;;;25.30;47.20;;;;;;6123603;28;20051;-50
2022/06/15 13:43:01;;;;;;;1.73;0.60;;;25.30;47.30;;;;;;6090789;28;20060;-51
2022/06/15 13:46:19;;;;;;;1.10;0.43;;;25.30;47.40;;;;;;6124178;28;20039;-49
2022/06/15 13:49:27;;;;;;;0.57;0.43;;;25.20;47.30;;;;;;6142294;28;21454;-50
2022/06/15 13:52:33;;;;;;;1.50;0.50;;;25.30;47.40;;;;;;6097069;28;20051;-51
2022/06/15 13:55:48;;;;;;;0.65;0.40;;;25.20;47.40;;;;;;6102949;28;20210;-54
2022/06/15 13:59:04;;;;;;;0.40;0.40;;;25.20;47.60;;;;;;6104363;28;20051;-48
2022/06/15 14:02:25;;;;;;;1.27;0.60;;;25.30;47.70;;;;;;6075502;28;20162;-53
2022/06/15 14:05:48;;;;;;;0.93;0.50;;;25.10;47.70;;;;;;6067928;28;21209;-49
2022/06/15 14:09:14;;;;;;;1.75;0.43;;;25.20;47.80;;;;;;6088243;28;21287;-51
2022/06/15 14:12:36;;;;;;;0.60;0.50;;;25.30;48.00;;;;;;6086904;28;20163;-50
2022/06/15 14:15:54;;;;;;;0.63;0.57;;;25.20;48.00;;;;;;6093718;28;20065;-49
2022/06/15 14:18:58;;;;;;;0.50;0.50;;;25.20;48.10;;;;;;6110797;28;20059;-50
2022/06/15 14:22:03;;;;;;;1.20;0.50;;;25.30;48.20;;;;;;6114460;27;20166;-52
2022/06/15 14:25:08;;;;;;;0.50;0.45;;;25.30;48.30;;;;;;6101083;28;20150;-52
2022/06/15 14:28:11;;;;;;;0.88;0.60;;;25.30;48.30;;;;;;6098357;28;20050;-51
2022/06/15 14:31:18;;;;;;;0.60;0.43;;;25.30;48.30;;;;;;6101619;28;20048;-51
2022/06/15 14:34:24;;;;;;;0.50;0.40;;;25.30;48.30;;;;;;6121832;27;20056;-51
2022/06/15 14:37:25;;;;;;;0.85;0.40;;;25.30;48.50;;;;;;6081767;28;20176;-51
2022/06/15 14:40:33;;;;;;;1.25;0.47;;;25.10;48.30;;;;;;6087830;28;20051;-48
2022/06/15 14:43:35;;;;;;;1.30;0.52;;;25.20;48.40;;;;;;6097296;28;20054;-50
2022/06/15 14:46:41;;;;;;;2.22;0.60;;;25.30;48.50;;;;;;6080506;28;20167;-49
2022/06/15 14:49:48;;;;;;;0.75;0.43;;;25.30;48.50;;;;;;6096734;27;20082;-50
2022/06/15 14:52:50;;;;;;;0.60;0.40;;;25.30;48.50;;;;;;6121231;27;20080;-51
2022/06/15 14:56:00;;;;;;;1.63;0.50;;;25.30;48.60;;;;;;6111505;28;21658;-48
2022/06/15 14:59:05;;;;;;;0.60;0.47;;;25.40;48.60;;;;;;6109410;28;21446;-52
2022/06/15 15:02:09;;;;;;;0.77;0.40;;;25.30;48.50;;;;;;6071335;28;20044;-47
2022/06/15 15:05:12;;;;;;;0.82;0.50;;;25.30;48.50;;;;;;6099559;28;20047;-51
2022/06/15 15:08:25;;;;;;;0.70;0.40;;;25.30;48.40;;;;;;6089831;28;20048;-46
2022/06/15 15:11:30;;;;;;;1.17;0.60;;;25.30;48.50;;;;;;6066020;28;20048;-47
2022/06/15 15:14:33;;;;;;;3.00;0.60;;;25.30;48.30;;;;;;6094610;28;24167;-53
2022/06/15 15:17:50;;;;;;;1.10;0.60;;;25.30;48.30;;;;;;6101203;27;21745;-48
2022/06/15 15:20:55;;;;;;;1.63;0.60;;;25.40;48.30;;;;;;6119291;28;20044;-51
2022/06/15 15:24:02;;;;;;;1.77;0.50;;;25.40;48.30;;;;;;6128887;28;20071;-48
2022/06/15 15:27:11;;;;;;;0.75;0.50;;;25.40;48.30;;;;;;6127631;28;20215;-54
2022/06/15 15:40:15;;;;;;;2.33;0.70;;;25.40;48.20;;;;;;6146425;28;20043;-54
2022/06/15 15:43:17;;;;;;;0.50;0.43;;;25.40;48.20;;;;;;6141579;28;20040;-50
2022/06/15 15:46:19;;;;;;;0.93;0.60;;;25.40;48.20;;;;;;6153411;28;21214;-49
2022/06/15 15:49:21;;;;;;;0.85;0.68;;;25.40;48.10;;;;;;6138814;28;20055;-50
2022/06/15 15:52:23;;;;;;;5.30;0.77;;;25.40;48.00;;;;;;6158736;28;20046;-48
2022/06/15 15:55:26;;;;;;;1.80;0.80;;;25.30;47.90;;;;;;6152420;28;20086;-47
2022/06/15 15:58:28;;;;;;;1.48;0.60;;;25.50;47.90;;;;;;6143619;28;20052;-46
2022/06/15 16:01:31;;;;;;;0.52;0.50;;;25.50;47.80;;;;;;6145065;28;22117;-49
2022/06/15 16:04:36;;;;;;;0.50;0.50;;;24.80;47.30;;;;;;6163349;28;20047;-49
2022/06/15 16:07:37;;;;;;;0.70;0.50;;;25.50;47.50;;;;;;6145869;28;20054;-52
2022/06/15 16:10:44;;;;;;;0.75;0.60;;;25.50;47.40;;;;;;6175861;28;20149;-48
2022/06/15 16:13:45;;;;;;;1.17;0.60;;;25.50;47.20;;;;;;6177787;28;20387;-47
2022/06/15 16:16:47;;;;;;;1.27;0.40;;;25.50;47.10;;;;;;6180938;28;20049;-53
2022/06/15 16:19:50;;;;;;;1.42;0.40;;;25.60;47.10;;;;;;6179474;28;22777;-50
2022/06/15 16:22:54;;;;;;;0.70;0.52;;;25.60;46.90;;;;;;6212953;28;20061;-45
2022/06/15 16:25:56;;;;;;;1.77;0.45;;;25.60;46.80;;;;;;6204794;28;20048;-49
2022/06/15 16:29:04;;;;;;;1.17;0.60;;;25.60;46.70;;;;;;6215640;28;20055;-45
2022/06/15 16:32:06;;;;;;;0.80;0.68;;;25.60;46.50;;;;;;6206533;28;21217;-49
2022/06/15 16:35:09;;;;;;;0.70;0.50;;;25.50;46.30;;;;;;6220346;28;20162;-47
2022/06/15 16:38:14;;;;;;;0.55;0.47;;;25.60;46.20;;;;;;6210040;28;20048;-46
2022/06/15 16:41:16;;;;;;;0.60;0.40;;;25.60;46.10;;;;;;6220032;28;20189;-45
2022/06/15 16:44:18;;;;;;;0.60;0.47;;;25.70;46.00;;;;;;6225385;28;20036;-47
2022/06/15 16:47:20;;;;;;;1.75;0.40;;;25.70;45.90;;;;;;6227697;28;20120;-48
2022/06/15 16:50:26;;;;;;;0.32;0.32;;;25.50;45.50;;;;;;6234526;28;20980;-47
2022/06/15 16:53:29;;;;;;;0.60;0.50;;;25.70;45.60;;;;;;6224833;28;20043;-44